AZO - Kalamazoo/Battle Creek Intl

Pirep is a free, collaborative database of all public and private airports located within the United States. All pilots are welcome to contribute, edit, and improve any airport they have local knowledge about, no registration required.
Uploaded photos will be licensed under a CC BY-SA 4.0 license. Please only upload photos you have the rights to use.
Tags
Public
Food
Car Rental
Museum
METAR / TAF
Flying Clubs
Edit Tags
Camping
Lodging
Bicycles
Swimming
Golfing
Fishing
Hot Springs
Airpark
Upcoming Events
No upcoming events. Is anything happening here soon?
*
*
*

Where exactly on/near the airport is this event taking place?

Is there a webpage with more information for this event?

Who should be contacted for more information?

What is this event all about?

Repeat every
Description
Last updated: 2023-06-16 22:34:26 EDT
Transient Parking
Fuel Location
Landing & Tie-down Fees
Crew Car Availability
Last updated: 2023-06-16 22:34:26 EDT
Flying Clubs
Last updated: 2024-01-25 23:49:59 EST
WiFi Access
Airport Statistics
Location: Kalamazoo, MI
Elevation: 873ft
Sectional: Chicago
Activation date: Apr 1940
Fuel: 100LL, A (prices)
Runway 17/35: 6,502ft
Runway 05/23: 3,438ft
Runway 09/27: 2,800ft
Access: Open to the public
Current Weather — VFR
  • Weather data is strictly informational and not for flight planning purposes.
  • METAR
    2024-05-29 12:53:00 EDT
    Ceiling Wind Temperature Dewpoint Weather Visbility
    Sky clear 350° @ 7kt 69°F 53°F N/A 10SM
    Clouds: Few @ 3,300ft
    Raw: KAZO 291653Z 35007KT 10SM FEW033 21/12 A3013 RMK AO2 SLP202 T02060122
  • TAF
    2024-05-29 08:00:00 EDT – 2024-05-29 14:00:00 EDT
    Ceiling Wind Weather Visbility
    8,000ft 340° @ 6kt N/A 6SM
    Clouds: Broken @ 8,000ft
    Raw: KAZO 291124Z 2912/3012 34006KT P6SM BKN080 FM291800 34009G17KT P6SM VCSH BKN060 FM300000 36004KT P6SM FEW060
  • TAF
    2024-05-29 14:00:00 EDT – 2024-05-29 20:00:00 EDT
    Ceiling Wind Weather Visbility
    6,000ft 340° @ 9kt, gusts 17kt Showers in vicinity 6SM
    Clouds: Broken @ 6,000ft
    Raw: KAZO 291124Z 2912/3012 34006KT P6SM BKN080 FM291800 34009G17KT P6SM VCSH BKN060 FM300000 36004KT P6SM FEW060
  • TAF
    2024-05-29 20:00:00 EDT – 2024-05-30 08:00:00 EDT
    Ceiling Wind Weather Visbility
    Sky clear 360° @ 4kt N/A 6SM
    Clouds: Few @ 6,000ft
    Raw: KAZO 291124Z 2912/3012 34006KT P6SM BKN080 FM291800 34009G17KT P6SM VCSH BKN060 FM300000 36004KT P6SM FEW060
Click/tap to add an annotation marker to the map
Airport Webcams
No webcams added yet.
Direct links to live image URLs will be displayed inline on this page. URLs to separate webpages will be linked to.
URL:
Direct links to live image URLs will be displayed inline on this page. URLs to separate webpages will be linked to.
URL:
Remarks
  • Atc-ctl
  • Ppr for unsked acr ops gtr than 30 pax seats - call amgr.
  • Migratory water fowl roosting area 5500 ft apch end ry 35. birds on & invof arpt.
  • Far part 36 noise limits in effect 2300 to 0630 lcl.
  • For customs call 269-965-3349.
Comments
Leave a comment What was your experience like at this airport?